createdAt,value
2019-04-19T00:01:47.625Z,39.25
2019-04-19T00:04:16.153Z,38.94
2019-04-19T00:06:45.951Z,38.93
2019-04-19T00:09:28.388Z,39.18
2019-04-19T00:11:58.431Z,38.75
2019-04-19T00:14:14.979Z,39.25
2019-04-19T00:16:44.860Z,39.26
2019-04-19T00:19:31.522Z,38.99
2019-04-19T00:22:11.703Z,38.82
2019-04-19T00:24:14.493Z,38.92
2019-04-19T00:26:44.234Z,38.82
2019-04-19T00:29:22.629Z,38.92
2019-04-19T00:32:00.269Z,39.20
2019-04-19T00:34:14.621Z,38.79
2019-04-19T00:36:43.160Z,38.86
2019-04-19T00:39:38.484Z,38.76
2019-04-19T00:42:18.119Z,38.98
2019-04-19T00:44:53.312Z,39.23
2019-04-19T00:47:19.422Z,39.09
2019-04-19T00:49:44.522Z,39.33
2019-04-19T00:52:15.937Z,39.16
2019-04-19T00:54:46.003Z,38.80
2019-04-19T00:57:15.577Z,39.09
2019-04-19T00:59:40.482Z,39.26
2019-04-19T01:02:10.216Z,38.73
2019-04-19T01:04:36.257Z,39.19
2019-04-19T01:07:06.816Z,38.72
2019-04-19T01:09:46.464Z,38.75
2019-04-19T01:12:19.575Z,38.87
2019-04-19T01:14:43.710Z,38.89
2019-04-19T01:17:20.647Z,38.89
2019-04-19T01:19:38.906Z,38.61
2019-04-19T01:22:11.802Z,38.86
2019-04-19T01:24:41.302Z,39.02
2019-04-19T01:27:06.930Z,38.70
2019-04-19T01:29:38.119Z,38.89
2019-04-19T01:32:10.526Z,38.68
2019-04-19T01:34:35.858Z,38.94
2019-04-19T01:37:11.354Z,38.97
2019-04-19T01:39:52.395Z,38.97
2019-04-19T01:42:24.903Z,39.03
2019-04-19T01:45:04.965Z,38.94
2019-04-19T01:47:40.518Z,38.92
2019-04-19T01:50:05.530Z,39.26
2019-04-19T01:52:58.075Z,38.94
2019-04-19T01:55:05.905Z,39.49
2019-04-19T01:57:24.367Z,39.81
2019-04-19T01:59:57.199Z,39.44
2019-04-19T02:02:26.043Z,39.29
2019-04-19T02:05:00.775Z,38.99
2019-04-19T02:07:27.482Z,39.21
2019-04-19T02:10:07.634Z,39.11
2019-04-19T02:12:36.773Z,38.94
2019-04-19T02:15:00.970Z,39.29
2019-04-19T02:17:27.644Z,39.25
2019-04-19T02:19:59.877Z,39.14
2019-04-19T02:22:29.782Z,39.26
2019-04-19T02:24:57.419Z,39.08
2019-04-19T02:27:31.006Z,39.45
2019-04-19T02:30:02.926Z,39.24
2019-04-19T02:32:40.942Z,39.06
2019-04-19T02:35:20.174Z,39.36
2019-04-19T02:37:52.946Z,39.39
2019-04-19T02:40:39.246Z,39.04
2019-04-19T02:42:50.986Z,39.38
2019-04-19T02:48:10.865Z,39.19
2019-04-19T02:51:00.761Z,39.27
2019-04-19T02:53:10.616Z,39.31
2019-04-19T02:58:02.605Z,39.51
2019-04-19T03:03:06.078Z,39.79
2019-04-19T03:05:38.318Z,39.80
2019-04-19T03:07:46.101Z,40.05
2019-04-19T03:10:19.358Z,40.53
2019-04-19T03:13:03.234Z,41.45
2019-04-19T03:15:36.693Z,41.44
2019-04-19T03:18:05.834Z,41.57
2019-04-19T03:20:32.382Z,41.57
2019-04-19T03:23:07.088Z,41.98
2019-04-19T03:25:31.279Z,42.06
2019-04-19T03:28:00.967Z,42.89
2019-04-19T03:30:46.544Z,42.47
2019-04-19T03:35:46.328Z,43.36
2019-04-19T03:38:07.155Z,43.48
2019-04-19T03:40:48.630Z,43.85
2019-04-19T03:43:08.894Z,43.84
2019-04-19T03:45:43.628Z,43.71
2019-04-19T03:48:17.188Z,43.50
2019-04-19T03:50:38.160Z,43.77
2019-04-19T03:53:15.338Z,43.21
2019-04-19T03:55:40.471Z,44.01
2019-04-19T03:58:00.546Z,44.14
2019-04-19T04:00:24.061Z,44.14
2019-04-19T04:02:54.083Z,43.45
2019-04-19T04:05:24.309Z,43.34
2019-04-19T04:08:02.457Z,43.87
2019-04-19T04:10:31.117Z,44.17
2019-04-19T04:13:29.807Z,43.84
2019-04-19T04:16:17.125Z,44.45
2019-04-19T04:18:36.437Z,44.46
2019-04-19T04:21:05.491Z,44.36
2019-04-19T04:23:39.487Z,44.54
2019-04-19T04:26:10.135Z,44.63
2019-04-19T04:28:48.199Z,44.80
2019-04-19T04:31:15.101Z,44.31
2019-04-19T04:33:47.158Z,45.06
2019-04-19T04:36:25.232Z,45.21
2019-04-19T04:38:40.716Z,45.54
2019-04-19T04:41:10.949Z,45.72
2019-04-19T04:43:48.349Z,45.88
2019-04-19T04:46:33.843Z,45.93
2019-04-19T04:48:58.277Z,45.79
2019-04-19T04:51:31.046Z,46.36
2019-04-19T04:53:45.377Z,46.31
2019-04-19T04:56:15.551Z,46.55
2019-04-19T04:58:47.430Z,46.40
2019-04-19T05:01:27.107Z,46.59
2019-04-19T05:04:01.903Z,46.57
2019-04-19T05:06:29.539Z,46.10
2019-04-19T05:08:58.560Z,46.40
2019-04-19T05:11:30.612Z,47.04
2019-04-19T05:14:07.772Z,46.29
2019-04-19T05:16:46.425Z,46.33
2019-04-19T05:19:08.129Z,46.67
2019-04-19T05:21:32.939Z,46.65
2019-04-19T05:24:08.859Z,46.73
2019-04-19T05:26:41.001Z,46.21
2019-04-19T05:28:59.697Z,46.38
2019-04-19T05:31:29.030Z,46.53
2019-04-19T05:34:09.773Z,46.50
2019-04-19T05:36:40.271Z,47.53
2019-04-19T05:39:16.021Z,47.54
2019-04-19T05:41:43.505Z,47.20
2019-04-19T05:46:51.827Z,47.38
2019-04-19T05:49:16.265Z,48.07
2019-04-19T05:54:07.261Z,49.27
2019-04-19T05:56:31.053Z,48.57
2019-04-19T05:59:08.864Z,47.60
2019-04-19T06:01:48.385Z,48.29
2019-04-19T06:04:18.513Z,48.65
2019-04-19T06:06:54.039Z,48.31
2019-04-19T06:09:00.524Z,47.48
2019-04-19T06:11:33.314Z,46.93
2019-04-19T06:14:18.361Z,45.72
2019-04-19T06:16:43.932Z,45.78
2019-04-19T06:19:26.743Z,45.70
2019-04-19T06:21:50.645Z,45.48
2019-04-19T06:24:21.695Z,44.60
2019-04-19T06:27:07.280Z,45.27
2019-04-19T06:29:31.359Z,44.84
2019-04-19T06:31:58.543Z,45.17
2019-04-19T06:34:26.360Z,44.64
2019-04-19T06:36:35.377Z,45.39
2019-04-19T06:39:05.568Z,46.14
2019-04-19T06:41:42.911Z,46.48
2019-04-19T06:44:12.792Z,47.00
2019-04-19T06:46:48.681Z,47.31
2019-04-19T06:49:12.818Z,47.24
2019-04-19T06:51:43.646Z,46.66
2019-04-19T06:54:08.723Z,46.74
2019-04-19T06:56:40.071Z,47.01
2019-04-19T06:59:17.374Z,45.41
2019-04-19T07:01:43.758Z,45.34
2019-04-19T07:04:06.262Z,44.82
2019-04-19T07:06:48.100Z,44.06
2019-04-19T07:09:33.441Z,43.43
2019-04-19T07:12:02.435Z,42.96
2019-04-19T07:14:14.606Z,42.62
2019-04-19T07:16:56.313Z,44.38
2019-04-19T07:19:30.683Z,42.67
2019-04-19T07:21:57.827Z,42.77
2019-04-19T07:24:35.393Z,42.63
2019-04-19T07:26:59.401Z,41.64
2019-04-19T07:29:10.622Z,40.44
2019-04-19T07:31:40.179Z,41.08
2019-04-19T07:34:22.177Z,41.42
2019-04-19T07:36:57.653Z,41.71
2019-04-19T07:39:27.899Z,39.90
2019-04-19T07:42:03.410Z,41.15
2019-04-19T07:44:22.268Z,39.19
2019-04-19T07:47:01.117Z,39.33
2019-04-19T07:49:15.928Z,39.84
2019-04-19T07:51:56.481Z,41.62
2019-04-19T07:54:21.534Z,41.11
2019-04-19T07:56:55.815Z,38.25
2019-04-19T07:59:39.346Z,38.60
2019-04-19T08:07:22.640Z,38.71
2019-04-19T08:14:48.068Z,36.69
2019-04-19T08:17:35.448Z,37.25
2019-04-19T08:29:35.201Z,35.62
2019-04-19T08:31:50.900Z,36.77
2019-04-19T08:34:21.391Z,35.87
2019-04-19T08:36:55.362Z,36.62
2019-04-19T08:39:39.735Z,36.04
2019-04-19T08:42:09.411Z,35.28
2019-04-19T08:44:35.797Z,35.08
2019-04-19T08:47:21.826Z,35.08
2019-04-19T08:49:44.881Z,35.78
2019-04-19T08:52:19.696Z,34.68
2019-04-19T08:55:07.331Z,35.23
2019-04-19T08:57:18.583Z,34.45
2019-04-19T09:00:08.146Z,35.09
2019-04-19T09:02:29.020Z,37.20
2019-04-19T09:05:07.382Z,33.89
2019-04-19T09:10:17.908Z,34.02
2019-04-19T09:12:30.663Z,33.30
2019-04-19T09:15:00.941Z,32.81
2019-04-19T09:17:43.052Z,32.70
2019-04-19T09:22:29.313Z,31.95
2019-04-19T09:24:54.946Z,32.22
2019-04-19T09:27:41.974Z,32.49
2019-04-19T09:30:06.540Z,32.16
2019-04-19T09:32:21.636Z,30.75
2019-04-19T09:34:55.117Z,33.12
2019-04-19T09:37:29.353Z,32.96
2019-04-19T09:39:56.549Z,29.48
2019-04-19T09:42:30.302Z,29.64
2019-04-19T09:44:55.005Z,29.32
2019-04-19T09:47:19.215Z,30.03
2019-04-19T09:50:01.421Z,30.63
2019-04-19T09:52:45.578Z,28.97
2019-04-19T09:55:13.785Z,28.21
2019-04-19T09:57:41.395Z,27.44
2019-04-19T09:59:57.665Z,27.32
2019-04-19T10:02:29.007Z,27.34
2019-04-19T10:04:52.853Z,27.17
2019-04-19T10:07:21.293Z,26.21
2019-04-19T10:09:59.100Z,28.41
2019-04-19T10:12:19.813Z,27.30
2019-04-19T10:14:49.232Z,26.46
2019-04-19T10:17:20.392Z,26.35
2019-04-19T10:19:48.922Z,25.76
2019-04-19T10:22:18.458Z,26.52
2019-04-19T10:24:47.800Z,26.48
2019-04-19T10:27:27.332Z,26.92
2019-04-19T10:29:55.963Z,25.67
2019-04-19T10:32:35.325Z,28.60
2019-04-19T10:35:04.454Z,25.23
2019-04-19T10:37:33.651Z,25.17
2019-04-19T10:40:02.237Z,25.36
2019-04-19T10:42:31.536Z,24.03
2019-04-19T10:45:00.382Z,25.88
2019-04-19T10:47:29.447Z,25.46
2019-04-19T10:50:12.047Z,24.87
2019-04-19T10:52:29.284Z,26.60
2019-04-19T10:54:59.454Z,25.46
2019-04-19T10:57:29.465Z,25.47
2019-04-19T11:00:01.597Z,24.24
2019-04-19T11:02:32.154Z,24.34
2019-04-19T11:05:00.962Z,23.47
2019-04-19T11:07:30.033Z,23.51
2019-04-19T11:09:59.834Z,23.80
2019-04-19T11:12:28.505Z,24.24
2019-04-19T11:14:57.946Z,24.78
2019-04-19T11:17:27.609Z,26.06
2019-04-19T11:20:12.334Z,24.84
2019-04-19T11:22:27.763Z,23.75
2019-04-19T11:24:56.757Z,23.18
2019-04-19T11:27:25.143Z,23.58
2019-04-19T11:29:56.438Z,24.24
2019-04-19T11:32:26.576Z,24.03
2019-04-19T11:34:55.654Z,24.04
2019-04-19T11:37:25.463Z,24.15
2019-04-19T11:39:55.123Z,23.04
2019-04-19T11:42:23.623Z,23.70
2019-04-19T11:44:52.123Z,26.14
2019-04-19T11:47:20.772Z,23.99
2019-04-19T11:49:49.377Z,23.45
2019-04-19T11:52:19.877Z,23.29
2019-04-19T11:54:48.460Z,24.12
2019-04-19T11:57:28.313Z,24.44
2019-04-19T11:59:59.402Z,25.77
2019-04-19T12:02:30.724Z,23.57
2019-04-19T12:05:03.745Z,24.02
2019-04-19T12:07:30.518Z,24.97
2019-04-19T12:09:58.957Z,23.82
2019-04-19T12:12:27.637Z,24.96
2019-04-19T12:14:56.002Z,24.83
2019-04-19T12:17:25.238Z,23.30
2019-04-19T12:19:59.276Z,22.03
2019-04-19T12:22:25.322Z,24.57
2019-04-19T12:24:55.378Z,22.17
2019-04-19T12:27:23.954Z,23.06
2019-04-19T12:29:54.956Z,22.87
2019-04-19T12:32:25.418Z,24.09
2019-04-19T12:34:54.999Z,24.74
2019-04-19T12:37:24.642Z,23.14
2019-04-19T12:39:54.757Z,23.67
2019-04-19T12:42:33.938Z,24.52
2019-04-19T12:45:03.916Z,22.59
2019-04-19T12:47:33.160Z,22.64
2019-04-19T12:50:07.046Z,22.40
2019-04-19T12:52:31.771Z,21.89
2019-04-19T12:55:00.183Z,24.15
2019-04-19T12:57:30.202Z,23.39
2019-04-19T12:59:58.585Z,24.21
2019-04-19T13:02:31.730Z,23.98
2019-04-19T13:05:04.666Z,22.14
2019-04-19T13:07:33.331Z,22.85
2019-04-19T13:10:02.883Z,23.01
2019-04-19T13:12:31.301Z,22.92
2019-04-19T13:14:59.923Z,22.84
2019-04-19T13:17:28.483Z,22.79
2019-04-19T13:20:07.569Z,22.66
2019-04-19T13:22:28.224Z,23.89
2019-04-19T13:24:57.253Z,22.49
2019-04-19T13:27:37.425Z,22.42
2019-04-19T13:30:08.781Z,23.18
2019-04-19T13:32:26.064Z,23.97
2019-04-19T13:34:55.038Z,22.98
2019-04-19T13:37:25.182Z,23.46
2019-04-19T13:40:12.304Z,22.17
2019-04-19T13:42:41.346Z,21.90
2019-04-19T13:45:20.946Z,22.70
2019-04-19T13:47:42.506Z,22.75
2019-04-19T13:50:21.410Z,24.02
2019-04-19T13:52:42.197Z,21.40
2019-04-19T13:55:11.061Z,20.62
2019-04-19T13:57:39.765Z,21.77
2019-04-19T14:00:13.405Z,22.36
2019-04-19T14:02:41.797Z,20.97
2019-04-19T14:05:11.777Z,21.52
2019-04-19T14:07:41.150Z,21.87
2019-04-19T14:10:09.934Z,22.92
2019-04-19T14:12:38.907Z,22.29
2019-04-19T14:15:08.783Z,22.42
2019-04-19T14:17:37.961Z,23.37
2019-04-19T14:20:12.627Z,23.26
2019-04-19T14:22:41.464Z,24.67
2019-04-19T14:25:11.519Z,23.11
2019-04-19T14:27:41.755Z,22.43
2019-04-19T14:30:11.198Z,22.11
2019-04-19T14:32:39.748Z,22.75
2019-04-19T14:35:10.125Z,23.37
2019-04-19T14:37:38.573Z,22.88
2019-04-19T14:40:10.202Z,24.09
2019-04-19T14:42:38.711Z,22.52
2019-04-19T14:45:08.027Z,21.17
2019-04-19T14:47:37.033Z,23.25
2019-04-19T14:50:07.319Z,23.43
2019-04-19T14:52:36.562Z,22.57
2019-04-19T14:55:07.907Z,24.05
2019-04-19T14:57:36.887Z,23.27
2019-04-19T15:00:09.195Z,24.59
2019-04-19T15:02:47.329Z,24.07
2019-04-19T15:05:17.571Z,24.14
2019-04-19T15:07:46.471Z,22.97
2019-04-19T15:10:15.674Z,22.62
2019-04-19T15:12:44.956Z,22.18
2019-04-19T15:15:14.564Z,25.75
2019-04-19T15:17:43.177Z,23.57
2019-04-19T15:20:13.952Z,22.90
2019-04-19T15:22:42.512Z,23.14
2019-04-19T15:25:12.883Z,23.19
2019-04-19T15:27:43.014Z,23.59
2019-04-19T15:30:13.066Z,24.52
2019-04-19T15:32:42.438Z,23.62
2019-04-19T15:35:13.838Z,23.74
2019-04-19T15:37:43.477Z,24.90
2019-04-19T15:40:16.081Z,24.74
2019-04-19T15:42:45.405Z,24.71
2019-04-19T15:45:14.722Z,24.61
2019-04-19T15:47:44.498Z,25.11
2019-04-19T15:50:13.795Z,24.58
2019-04-19T15:52:42.428Z,24.20
2019-04-19T15:55:12.247Z,23.98
2019-04-19T15:57:41.882Z,24.39
2019-04-19T16:00:14.182Z,24.89
2019-04-19T16:02:44.364Z,23.91
2019-04-19T16:05:31.544Z,24.37
2019-04-19T16:08:06.456Z,23.82
2019-04-19T16:10:48.690Z,23.74
2019-04-19T16:13:18.047Z,23.77
2019-04-19T16:15:47.776Z,23.11
2019-04-19T16:18:17.873Z,24.67
2019-04-19T16:20:49.304Z,23.82
2019-04-19T16:23:16.463Z,24.09
2019-04-19T16:25:47.597Z,23.40
2019-04-19T16:28:15.270Z,25.90
2019-04-19T16:30:44.214Z,24.20
2019-04-19T16:33:13.552Z,24.14
2019-04-19T16:35:42.479Z,24.72
2019-04-19T16:38:11.947Z,26.08
2019-04-19T16:40:40.617Z,25.42
2019-04-19T16:43:09.105Z,24.16
2019-04-19T16:45:37.884Z,24.54
2019-04-19T16:48:07.801Z,24.12
2019-04-19T16:50:36.644Z,24.82
2019-04-19T16:53:06.917Z,25.00
2019-04-19T16:55:35.989Z,25.82
2019-04-19T16:58:04.681Z,25.54
2019-04-19T17:00:42.791Z,25.61
2019-04-19T17:03:11.863Z,24.10
2019-04-19T17:05:40.262Z,26.55
2019-04-19T17:08:09.505Z,26.76
2019-04-19T17:10:38.671Z,25.45
2019-04-19T17:13:07.064Z,25.37
2019-04-19T17:15:37.169Z,27.40
2019-04-19T17:18:14.523Z,25.55
2019-04-19T17:20:53.493Z,27.58
2019-04-19T17:23:22.448Z,25.70
2019-04-19T17:25:50.883Z,28.10
2019-04-19T17:28:19.313Z,27.82
2019-04-19T17:30:48.408Z,28.45
2019-04-19T17:33:17.958Z,27.70
2019-04-19T17:35:48.081Z,28.72
2019-04-19T17:38:26.959Z,25.79
2019-04-19T17:40:46.915Z,26.29
2019-04-19T17:43:15.380Z,26.15
2019-04-19T17:45:44.270Z,26.09
2019-04-19T17:48:13.016Z,24.87
2019-04-19T17:50:41.963Z,27.10
2019-04-19T17:53:10.731Z,28.09
2019-04-19T17:55:43.537Z,28.48
2019-04-19T17:58:09.739Z,27.53
2019-04-19T18:00:38.157Z,27.70
2019-04-19T18:03:07.024Z,28.02
2019-04-19T18:05:38.048Z,28.30
2019-04-19T18:08:06.590Z,28.37
2019-04-19T18:10:43.314Z,28.27
2019-04-19T18:13:05.395Z,28.62
2019-04-19T18:15:34.945Z,28.82
2019-04-19T18:18:08.302Z,28.71
2019-04-19T18:20:36.830Z,28.35
2019-04-19T18:23:10.370Z,28.35
2019-04-19T18:25:41.207Z,27.99
2019-04-19T18:28:10.719Z,28.32
2019-04-19T18:30:45.641Z,28.63
2019-04-19T18:33:12.730Z,29.19
2019-04-19T18:35:42.209Z,29.07
2019-04-19T18:38:15.701Z,29.77
2019-04-19T18:40:40.931Z,31.68
2019-04-19T18:43:22.278Z,33.04
2019-04-19T18:45:41.997Z,34.21
2019-04-19T18:48:11.476Z,33.01
2019-04-19T18:50:42.503Z,34.49
2019-04-19T18:53:18.999Z,32.70
2019-04-19T18:55:44.117Z,32.41
2019-04-19T18:58:13.197Z,33.20
2019-04-19T19:00:44.296Z,33.18
2019-04-19T19:03:11.544Z,31.19
2019-04-19T19:05:44.271Z,31.87
2019-04-19T19:08:17.585Z,32.96
2019-04-19T19:10:45.194Z,35.21
2019-04-19T19:13:10.497Z,35.81
2019-04-19T19:15:44.982Z,35.15
2019-04-19T19:18:08.984Z,31.95
2019-04-19T19:20:41.621Z,32.79
2019-04-19T19:23:20.285Z,33.24
2019-04-19T19:25:48.205Z,30.92
2019-04-19T19:28:11.606Z,30.10
2019-04-19T19:30:40.668Z,30.54
2019-04-19T19:33:16.370Z,30.55
2019-04-19T19:35:45.803Z,30.13
2019-04-19T19:38:15.635Z,29.83
2019-04-19T19:40:54.768Z,29.47
2019-04-19T19:43:30.280Z,29.82
2019-04-19T19:45:51.497Z,30.04
2019-04-19T19:48:31.015Z,29.49
2019-04-19T19:51:09.851Z,29.59
2019-04-19T19:53:40.520Z,30.18
2019-04-19T19:56:11.380Z,31.62
2019-04-19T19:58:25.588Z,31.79
2019-04-19T20:01:00.785Z,32.63
2019-04-19T20:03:21.406Z,31.96
2019-04-19T20:05:44.282Z,31.55
2019-04-19T20:08:20.053Z,31.52
2019-04-19T20:10:45.946Z,31.61
2019-04-19T20:13:16.103Z,31.36
2019-04-19T20:15:45.953Z,31.82
2019-04-19T20:18:14.132Z,30.67
2019-04-19T20:20:44.401Z,30.98
2019-04-19T20:23:21.762Z,30.86
2019-04-19T20:25:50.602Z,30.85
2019-04-19T20:28:20.369Z,30.43
2019-04-19T20:30:47.093Z,30.45
2019-04-19T20:33:16.162Z,30.83
2019-04-19T20:35:46.048Z,30.98
2019-04-19T20:38:18.736Z,30.95
2019-04-19T20:40:51.530Z,30.98
2019-04-19T20:43:31.518Z,30.77
2019-04-19T20:45:49.633Z,30.42
2019-04-19T20:48:20.471Z,31.06
2019-04-19T20:50:56.118Z,32.04
2019-04-19T20:53:32.277Z,32.87
2019-04-19T20:56:29.281Z,33.40
2019-04-19T20:58:33.270Z,32.74
2019-04-19T21:00:56.790Z,32.89
2019-04-19T21:03:32.707Z,33.10
2019-04-19T21:05:56.312Z,32.21
2019-04-19T21:08:26.661Z,31.99
2019-04-19T21:11:00.481Z,32.68
2019-04-19T21:13:27.168Z,31.89
2019-04-19T21:15:56.297Z,31.99
2019-04-19T21:18:27.422Z,32.39
2019-04-19T21:21:02.676Z,32.59
2019-04-19T21:23:27.980Z,32.21
2019-04-19T21:25:59.066Z,32.39
2019-04-19T21:28:35.555Z,32.23
2019-04-19T21:31:00.898Z,32.51
2019-04-19T21:33:26.863Z,32.88
2019-04-19T21:36:02.184Z,32.94
2019-04-19T21:38:27.178Z,33.36
2019-04-19T21:40:55.795Z,33.67
2019-04-19T21:43:28.350Z,34.99
2019-04-19T21:45:55.062Z,34.81
2019-04-19T21:48:26.924Z,34.65
2019-04-19T21:50:55.341Z,35.08
2019-04-19T21:53:25.849Z,35.51
2019-04-19T21:56:02.133Z,35.81
2019-04-19T21:58:25.173Z,36.04
2019-04-19T22:01:08.144Z,36.92
2019-04-19T22:03:31.011Z,37.15
2019-04-19T22:06:02.839Z,37.54
2019-04-19T22:08:33.389Z,37.29
2019-04-19T22:11:00.672Z,37.58
2019-04-19T22:13:34.372Z,37.74
2019-04-19T22:16:02.004Z,37.62
2019-04-19T22:18:32.165Z,37.83
2019-04-19T22:21:03.159Z,37.90
2019-04-19T22:23:30.895Z,37.98
2019-04-19T22:26:14.551Z,37.86
2019-04-19T22:28:29.989Z,37.98
2019-04-19T22:31:00.244Z,37.77
2019-04-19T22:33:28.524Z,37.91
2019-04-19T22:36:00.527Z,38.10
2019-04-19T22:38:27.623Z,38.42
2019-04-19T22:41:01.110Z,38.29
2019-04-19T22:43:26.930Z,38.11
2019-04-19T22:46:01.866Z,38.28
2019-04-19T22:48:26.758Z,38.51
2019-04-19T22:50:57.413Z,38.53
2019-04-19T22:53:32.122Z,38.75
2019-04-19T22:56:12.171Z,38.52
2019-04-19T22:58:28.802Z,38.70
2019-04-19T23:00:58.972Z,38.83
2019-04-19T23:03:35.509Z,38.87
2019-04-19T23:06:03.583Z,38.84
2019-04-19T23:08:36.740Z,39.20
2019-04-19T23:11:05.581Z,39.33
2019-04-19T23:13:33.602Z,39.75
2019-04-19T23:16:06.448Z,39.63
2019-04-19T23:18:34.144Z,39.80
2019-04-19T23:21:12.345Z,40.02
2019-04-19T23:23:35.898Z,39.96
2019-04-19T23:26:17.627Z,40.09
2019-04-19T23:28:39.306Z,40.00
2019-04-19T23:31:08.811Z,40.19
2019-04-19T23:33:34.340Z,40.14
2019-04-19T23:36:04.789Z,40.22
2019-04-19T23:38:34.395Z,40.34
2019-04-19T23:41:03.435Z,40.22
2019-04-19T23:43:36.995Z,40.32
2019-04-19T23:46:03.497Z,40.17
2019-04-19T23:48:33.787Z,40.52
2019-04-19T23:51:02.195Z,40.26
2019-04-19T23:53:36.112Z,40.46
2019-04-19T23:56:00.730Z,40.46
2019-04-19T23:58:34.098Z,40.55
